createdAt,value
2023-01-17T00:02:33.570Z,4.26
2023-01-17T00:07:53.963Z,4.28
2023-01-17T00:12:58.477Z,4.36
2023-01-17T00:18:00.195Z,4.34
2023-01-17T00:23:23.978Z,4.39
2023-01-17T00:28:26.607Z,4.44
2023-01-17T00:33:28.841Z,4.43
2023-01-17T00:38:32.524Z,4.33
2023-01-17T00:43:53.040Z,4.40
2023-01-17T00:49:13.084Z,4.41
2023-01-17T00:54:34.000Z,4.37
2023-01-17T00:59:55.129Z,4.44
2023-01-17T01:05:15.058Z,4.48
2023-01-17T01:10:35.721Z,4.46
2023-01-17T01:15:55.591Z,4.41
2023-01-17T01:21:21.089Z,4.41
2023-01-17T01:26:41.683Z,4.40
2023-01-17T01:32:01.697Z,4.41
2023-01-17T01:37:03.363Z,4.48
2023-01-17T01:42:13.391Z,4.44
2023-01-17T01:47:18.856Z,4.35
2023-01-17T01:52:25.102Z,4.32
2023-01-17T01:57:32.123Z,4.39
2023-01-17T02:02:34.963Z,4.38
2023-01-17T02:08:02.474Z,4.25
2023-01-17T02:13:04.992Z,4.20
2023-01-17T02:18:18.031Z,4.29
2023-01-17T02:23:58.053Z,4.24
2023-01-17T02:29:24.615Z,4.26
2023-01-17T02:34:41.321Z,4.29
2023-01-17T02:40:07.230Z,4.28
2023-01-17T02:45:14.930Z,4.29
2023-01-17T02:50:23.549Z,4.36
2023-01-17T02:55:43.496Z,4.39
2023-01-17T03:00:51.885Z,4.35
2023-01-17T03:06:11.850Z,4.32
2023-01-17T03:11:14.262Z,4.36
2023-01-17T03:16:21.192Z,4.35
2023-01-17T03:21:24.276Z,4.25
2023-01-17T03:26:25.809Z,4.28
2023-01-17T03:31:27.337Z,4.27
2023-01-17T03:36:28.877Z,4.24
2023-01-17T03:41:30.389Z,4.22
2023-01-17T03:46:31.993Z,4.24
2023-01-17T03:51:33.511Z,4.17
2023-01-17T03:56:35.060Z,4.14
2023-01-17T04:01:36.635Z,4.12
2023-01-17T04:06:38.601Z,4.05
2023-01-17T04:11:40.088Z,3.94
2023-01-17T04:16:41.656Z,3.92
2023-01-17T04:21:43.160Z,3.97
2023-01-17T04:26:44.680Z,3.92
2023-01-17T04:31:47.820Z,3.86
2023-01-17T04:36:49.503Z,3.94
2023-01-17T04:41:50.987Z,3.93
2023-01-17T04:46:52.484Z,3.84
2023-01-17T04:51:54.012Z,3.85
2023-01-17T04:56:55.548Z,3.90
2023-01-17T05:01:57.100Z,3.84
2023-01-17T05:06:59.042Z,3.74
2023-01-17T05:12:00.734Z,3.79
2023-01-17T05:17:04.796Z,3.78
2023-01-17T05:22:15.037Z,3.74
2023-01-17T05:27:16.809Z,3.67
2023-01-17T05:32:18.485Z,3.75
2023-01-17T05:37:20.963Z,3.82
2023-01-17T05:42:22.565Z,3.74
2023-01-17T05:47:24.082Z,3.77
2023-01-17T05:52:25.565Z,3.70
2023-01-17T05:57:27.148Z,3.53
2023-01-17T06:02:28.685Z,3.35
2023-01-17T06:07:31.853Z,3.33
2023-01-17T06:12:33.334Z,3.29
2023-01-17T06:17:35.670Z,3.19
2023-01-17T06:22:37.332Z,3.20
2023-01-17T06:27:38.854Z,3.19
2023-01-17T06:32:40.428Z,3.18
2023-01-17T06:37:41.953Z,3.11
2023-01-17T06:42:43.869Z,3.06
2023-01-17T06:47:45.679Z,3.06
2023-01-17T06:53:05.393Z,2.97
2023-01-17T06:58:07.036Z,2.87
2023-01-17T07:03:20.039Z,2.84
2023-01-17T07:08:21.823Z,2.85
2023-01-17T07:13:23.366Z,2.85
2023-01-17T07:18:24.888Z,2.83
2023-01-17T07:23:26.519Z,2.79
2023-01-17T07:28:29.388Z,2.86
2023-01-17T07:33:30.965Z,2.95
2023-01-17T07:38:32.483Z,3.00
2023-01-17T07:43:35.512Z,2.98
2023-01-17T07:48:37.092Z,2.97
2023-01-17T07:53:38.567Z,3.14
2023-01-17T07:58:40.114Z,3.18
2023-01-17T08:03:42.385Z,3.19
2023-01-17T08:08:44.581Z,3.17
2023-01-17T08:13:47.140Z,3.32
2023-01-17T08:18:48.808Z,3.41
2023-01-17T08:23:51.955Z,3.41
2023-01-17T08:29:00.442Z,3.43
2023-01-17T08:34:02.372Z,3.49
2023-01-17T08:39:03.924Z,3.53
2023-01-17T08:44:05.852Z,3.54
2023-01-17T08:49:09.429Z,3.55
2023-01-17T08:54:13.008Z,3.62
2023-01-17T08:59:14.719Z,3.80
2023-01-17T09:04:16.354Z,4.01
2023-01-17T09:09:18.464Z,4.18
2023-01-17T09:14:20.024Z,4.23
2023-01-17T09:19:21.528Z,4.24
2023-01-17T09:24:23.147Z,4.28
2023-01-17T09:29:24.764Z,4.44
2023-01-17T09:34:28.079Z,4.47
2023-01-17T09:39:29.884Z,4.45
2023-01-17T09:44:38.023Z,4.45
2023-01-17T09:49:44.730Z,4.51
2023-01-17T09:54:48.716Z,4.60
2023-01-17T10:00:12.666Z,4.64
2023-01-17T10:05:16.972Z,4.59
2023-01-17T10:10:44.909Z,4.63
2023-01-17T10:15:51.939Z,4.72
2023-01-17T10:20:56.372Z,4.80
2023-01-17T10:26:03.258Z,4.80
2023-01-17T10:31:26.002Z,4.79
2023-01-17T10:36:31.540Z,4.91
2023-01-17T10:41:38.283Z,5.00
2023-01-17T10:47:11.329Z,5.02
2023-01-17T10:52:13.049Z,4.98
2023-01-17T10:57:26.255Z,5.01
2023-01-17T11:02:33.251Z,5.04
2023-01-17T11:07:34.860Z,5.28
2023-01-17T11:12:45.130Z,5.26
2023-01-17T11:17:52.916Z,5.21
2023-01-17T11:23:17.412Z,5.19
2023-01-17T11:28:18.968Z,5.27
2023-01-17T11:33:49.119Z,5.32
2023-01-17T11:38:58.112Z,5.31
2023-01-17T11:44:01.028Z,5.28
2023-01-17T11:49:02.617Z,5.22
2023-01-17T11:54:09.001Z,5.28
2023-01-17T11:59:31.675Z,5.38
2023-01-17T12:04:42.791Z,5.38
2023-01-17T12:09:56.242Z,5.28
2023-01-17T12:15:19.658Z,5.17
2023-01-17T12:20:55.953Z,5.18
2023-01-17T12:26:24.220Z,5.35
2023-01-17T12:31:37.065Z,5.42
2023-01-17T12:36:52.188Z,5.40
2023-01-17T12:42:18.533Z,5.35
2023-01-17T12:47:21.568Z,5.32
2023-01-17T12:52:46.499Z,5.31
2023-01-17T12:57:55.980Z,5.44
2023-01-17T13:03:16.064Z,5.46
2023-01-17T13:08:46.578Z,5.51
2023-01-17T13:13:51.461Z,5.59
2023-01-17T13:18:53.777Z,5.71
2023-01-17T13:24:04.012Z,5.76
2023-01-17T13:29:20.474Z,5.84
2023-01-17T13:34:33.299Z,5.81
2023-01-17T13:40:05.015Z,5.70
2023-01-17T13:45:09.248Z,5.54
2023-01-17T13:50:49.987Z,5.38
2023-01-17T13:55:53.401Z,5.15
2023-01-17T14:00:55.148Z,5.01
2023-01-17T14:05:57.331Z,4.91
2023-01-17T14:11:09.831Z,4.80
2023-01-17T14:16:29.016Z,4.71
2023-01-17T14:21:32.575Z,4.74
2023-01-17T14:26:46.417Z,4.70
2023-01-17T14:31:50.812Z,4.60
2023-01-17T14:37:04.341Z,4.48
2023-01-17T14:42:05.943Z,4.35
2023-01-17T14:47:14.113Z,4.20
2023-01-17T14:52:18.520Z,4.02
2023-01-17T14:57:28.039Z,3.85
2023-01-17T15:02:29.788Z,3.71
2023-01-17T15:07:32.348Z,3.67
2023-01-17T15:12:36.708Z,3.64
2023-01-17T15:17:38.084Z,3.60
2023-01-17T15:22:39.891Z,3.49
2023-01-17T15:27:41.415Z,3.35
2023-01-17T15:32:47.869Z,3.21
2023-01-17T15:37:54.528Z,3.06
2023-01-17T15:43:01.109Z,3.02
2023-01-17T15:48:41.027Z,3.04
2023-01-17T15:53:43.252Z,2.99
2023-01-17T15:58:45.284Z,2.89
2023-01-17T16:03:54.712Z,2.78
2023-01-17T16:08:56.243Z,2.67
2023-01-17T16:13:57.709Z,2.74
2023-01-17T16:19:02.226Z,2.80
2023-01-17T16:24:09.358Z,2.74
2023-01-17T16:29:11.064Z,2.65
2023-01-17T16:34:13.118Z,2.53
2023-01-17T16:39:15.374Z,2.43
2023-01-17T16:44:17.110Z,2.35
2023-01-17T16:49:19.036Z,2.43
2023-01-17T16:54:20.551Z,2.51
2023-01-17T16:59:22.364Z,2.50
2023-01-17T17:04:23.844Z,2.42
2023-01-17T17:09:25.488Z,2.36
2023-01-17T17:14:27.396Z,2.30
2023-01-17T17:19:29.033Z,2.35
2023-01-17T17:24:30.532Z,2.40
2023-01-17T17:29:32.393Z,2.34
2023-01-17T17:34:36.744Z,2.27
2023-01-17T17:39:38.856Z,2.32
2023-01-17T17:44:40.349Z,2.31
2023-01-17T17:49:42.250Z,2.28
2023-01-17T17:54:43.748Z,2.24
2023-01-17T17:59:45.272Z,2.14
2023-01-17T18:04:47.142Z,2.17
2023-01-17T18:09:49.745Z,2.18
2023-01-17T18:14:51.227Z,2.10
2023-01-17T18:19:54.815Z,2.01
2023-01-17T18:24:57.236Z,1.92
2023-01-17T18:29:59.478Z,1.95
2023-01-17T18:35:00.996Z,1.97
2023-01-17T18:40:02.781Z,1.96
2023-01-17T18:45:05.328Z,1.89
2023-01-17T18:50:07.073Z,1.96
2023-01-17T18:55:08.846Z,1.92
2023-01-17T19:00:11.318Z,1.87
2023-01-17T19:05:14.859Z,1.78
2023-01-17T19:10:16.407Z,1.80
2023-01-17T19:15:17.885Z,1.76
2023-01-17T19:20:19.356Z,1.64
2023-01-17T19:25:22.957Z,1.52
2023-01-17T19:30:24.568Z,1.58
2023-01-17T19:35:26.101Z,1.62
2023-01-17T19:40:27.984Z,1.54
2023-01-17T19:45:29.481Z,1.43
2023-01-17T19:50:31.048Z,1.39
2023-01-17T19:55:32.529Z,1.44
2023-01-17T20:00:45.904Z,1.47
2023-01-17T20:05:56.672Z,1.46
2023-01-17T20:11:03.001Z,1.44
2023-01-17T20:16:06.914Z,1.37
2023-01-17T20:21:14.644Z,1.46
2023-01-17T20:26:19.354Z,1.52
2023-01-17T20:31:23.533Z,1.50
2023-01-17T20:36:29.086Z,1.51
2023-01-17T20:41:36.466Z,1.49
2023-01-17T20:46:41.292Z,1.58
2023-01-17T20:51:44.906Z,1.63
2023-01-17T20:56:51.408Z,1.64
2023-01-17T21:01:53.035Z,1.60
2023-01-17T21:06:55.396Z,1.58
2023-01-17T21:12:01.440Z,1.65
2023-01-17T21:17:03.344Z,1.71
2023-01-17T21:22:05.507Z,1.63
2023-01-17T21:27:07.057Z,1.56
2023-01-17T21:32:08.900Z,1.62
2023-01-17T21:37:10.540Z,1.64
2023-01-17T21:42:12.088Z,1.60
2023-01-17T21:47:13.587Z,1.57
2023-01-17T21:52:21.153Z,1.65
2023-01-17T21:57:41.738Z,1.78
2023-01-17T22:02:48.141Z,1.81
2023-01-17T22:08:10.887Z,1.62
2023-01-17T22:13:17.978Z,1.34
2023-01-17T22:18:19.525Z,1.15
2023-01-17T22:23:21.184Z,1.23
2023-01-17T22:28:23.228Z,1.32
2023-01-17T22:33:24.706Z,1.30
2023-01-17T22:38:26.250Z,1.27
2023-01-17T22:43:27.715Z,1.37
2023-01-17T22:48:31.891Z,1.47
2023-01-17T22:53:33.853Z,1.44
2023-01-17T22:58:35.965Z,1.40
2023-01-17T23:03:38.582Z,1.46
2023-01-17T23:08:42.865Z,1.59
2023-01-17T23:13:44.348Z,1.57
2023-01-17T23:19:04.186Z,1.52
2023-01-17T23:24:06.308Z,1.59
2023-01-17T23:29:07.811Z,1.62
2023-01-17T23:34:09.327Z,1.58
2023-01-17T23:39:10.812Z,1.50
2023-01-17T23:44:12.483Z,1.38
2023-01-17T23:49:14.022Z,1.46
2023-01-17T23:54:15.505Z,1.51
2023-01-17T23:59:17.097Z,1.47
